»·PEaware :: N15JG L73-KBFL

N15JG :: L73-KBFL

FLIGHT INFORMATION

Flight Status: Arrived
Operator: Privately registered:
United States
More flights under this callsign
Pilot: Anonymous 11047 (11047)
Aircraft: CESSNA 172 SKYHAWK
(C172)
More flights by this aircraft type
Origin: L73 Poso-Kern Co
United States
Destination: KBFL Meadows
United States
More flights between these airports :: More routes between these airports
Route: KMIT L84 L62
File this flight plan on PilotEdge
Remarks:
Altitude:
(Current/Filed)
2,500ft
Speed:
(Current/Filed)
100kts
Departed: 17-Dec-16 06:35 AM
Arrived: 17-Dec-16 08:35 AM
Distance/Time
Traveled:
11nm/2:00
Distance/Time
To Go:
Arrived

Flight Plot

Page will automatically refresh every two minutes.

Flight plan parsing failed; only flown route is shown


Map Options




Map Legend


Flown Route
Filed Route
Departure Airport
Arrival Airport
Navaid (VOR, NDB)
Fix

Horizontal Profiles

Position Reports

Time Latitude Longitude Heading Altitude Ground
Speed
17-Dec-16 06:04 35.595806 -119.129231 90 640ft 0kts
17-Dec-16 06:05 35.595806 -119.129231 90 640ft 0kts
17-Dec-16 06:06 35.595806 -119.129231 90 640ft 0kts
17-Dec-16 06:07 35.595806 -119.129231 90 640ft 0kts
17-Dec-16 06:08 35.595806 -119.129231 90 640ft 0kts
17-Dec-16 06:09 35.595806 -119.129231 90 640ft 0kts
17-Dec-16 06:10 35.595806 -119.129231 90 640ft 0kts
17-Dec-16 06:11 35.595806 -119.129231 90 640ft 0kts
17-Dec-16 06:12 35.595806 -119.129231 90 640ft 0kts
17-Dec-16 06:13 35.595806 -119.129231 90 640ft 0kts
17-Dec-16 06:14 35.595806 -119.129231 90 640ft 0kts
17-Dec-16 06:15 35.595806 -119.129231 90 640ft 0kts
17-Dec-16 06:16 35.595806 -119.129231 90 640ft 0kts
17-Dec-16 06:17 35.595806 -119.129223 88 640ft 0kts
17-Dec-16 06:18 35.595806 -119.129223 88 640ft 0kts
17-Dec-16 06:19 35.595806 -119.129223 88 640ft 0kts
17-Dec-16 06:20 35.595806 -119.129223 88 640ft 0kts
17-Dec-16 06:21 35.595806 -119.129223 88 640ft 0kts
17-Dec-16 06:22 35.595806 -119.129223 88 640ft 0kts
17-Dec-16 06:23 35.596465 -119.129175 59 639ft 9kts
17-Dec-16 06:24 35.600447 -119.128142 82 644ft 4kts
17-Dec-16 06:25 35.600455 -119.128021 91 644ft 0kts
17-Dec-16 06:26 35.600455 -119.128021 91 644ft 0kts
17-Dec-16 06:27 35.597249 -119.127531 179 658ft 66kts
17-Dec-16 06:28 35.574207 -119.125672 155 1450ft 106kts
17-Dec-16 06:29 35.579186 -119.098891 349 1481ft 106kts
17-Dec-16 06:30 35.608239 -119.104572 352 1410ft 89kts
17-Dec-16 06:31 35.622507 -119.117752 231 1186ft 68kts
17-Dec-16 06:32 35.608728 -119.127650 176 839ft 60kts
17-Dec-16 06:33 35.593465 -119.127502 180 649ft 84kts
17-Dec-16 06:34 35.568036 -119.133444 214 1546ft 104kts
17-Dec-16 06:35 35.545408 -119.158595 223 2031ft 112kts
17-Dec-16 06:36 35.522920 -119.182229 217 2090ft 106kts
17-Dec-16 06:37 35.501872 -119.204544 215 2423ft 101kts
17-Dec-16 06:38 35.484588 -119.231680 280 1974ft 118kts
17-Dec-16 06:39 35.506627 -119.235126 58 1270ft 83kts
17-Dec-16 06:40 35.517010 -119.217036 72 702ft 57kts
17-Dec-16 06:41 35.510414 -119.200662 132 463ft 56kts
17-Dec-16 06:42 35.497487 -119.183913 132 747ft 95kts
17-Dec-16 06:43 35.477077 -119.175146 236 1664ft 105kts
17-Dec-16 06:44 35.484432 -119.202820 318 1419ft 107kts
17-Dec-16 06:45 35.504906 -119.224595 322 1260ft 89kts
17-Dec-16 06:46 35.523251 -119.233454 55 964ft 76kts
17-Dec-16 06:47 35.523507 -119.217494 133 716ft 61kts
17-Dec-16 06:48 35.512212 -119.203047 132 475ft 63kts
17-Dec-16 06:49 35.500497 -119.187954 132 558ft 98kts
17-Dec-16 06:50 35.481219 -119.172824 205 1479ft 101kts
17-Dec-16 06:51 35.474706 -119.202804 318 1384ft 110kts
17-Dec-16 06:52 35.472521 -119.215947 94 1475ft 100kts
17-Dec-16 06:53 35.498544 -119.216575 320 1184ft 122kts
17-Dec-16 06:54 35.518195 -119.225843 47 969ft 69kts
17-Dec-16 06:55 35.515796 -119.207775 132 517ft 66kts
17-Dec-16 06:56 35.504373 -119.192786 132 451ft 91kts
17-Dec-16 06:57 35.485808 -119.178349 225 1372ft 102kts
17-Dec-16 06:58 35.485216 -119.208106 331 1456ft 111kts
17-Dec-16 06:59 35.511026 -119.222948 316 1138ft 93kts
17-Dec-16 07:00 35.520799 -119.212611 144 733ft 68kts
17-Dec-16 07:01 35.509264 -119.199251 132 414ft 42kts
17-Dec-16 07:02 35.494036 -119.178906 129 1023ft 90kts
17-Dec-16 07:03 35.473118 -119.182496 254 1587ft 118kts
17-Dec-16 07:04 35.484912 -119.217014 299 2168ft 116kts
17-Dec-16 07:05 35.499860 -119.252604 297 2485ft 125kts
17-Dec-16 07:06 35.515062 -119.291277 290 2455ft 130kts
17-Dec-16 07:07 35.520504 -119.323790 267 2510ft 123kts
17-Dec-16 07:08 35.520504 -119.323790 267 2510ft 123kts
17-Dec-16 07:09 35.520504 -119.323790 267 2510ft 123kts
17-Dec-16 07:10 35.520507 -119.346175 273 2670ft 120kts
17-Dec-16 07:11 35.526780 -119.380438 296 2517ft 133kts
17-Dec-16 07:12 35.548207 -119.415004 304 2416ft 127kts
17-Dec-16 07:13 35.565406 -119.451976 294 2403ft 121kts
17-Dec-16 07:14 35.577583 -119.491694 287 2278ft 124kts
17-Dec-16 07:15 35.588129 -119.531867 291 1970ft 126kts
17-Dec-16 07:16 35.593957 -119.549236 290 1946ft 110kts
17-Dec-16 07:17 35.593957 -119.549236 290 1946ft 110kts
17-Dec-16 07:18 35.602089 -119.586523 283 1478ft 121kts
17-Dec-16 07:19 35.618411 -119.621975 308 1208ft 119kts
17-Dec-16 07:20 35.638854 -119.652204 303 1283ft 117kts
17-Dec-16 07:21 35.658266 -119.657393 88 1021ft 121kts
17-Dec-16 07:22 35.632790 -119.641820 159 1125ft 111kts
17-Dec-16 07:23 35.613309 -119.661695 295 1237ft 131kts
17-Dec-16 07:24 35.642442 -119.676475 325 1023ft 96kts
17-Dec-16 07:25 35.639516 -119.690325 162 730ft 71kts
17-Dec-16 07:26 35.624951 -119.686103 204 276ft 11kts
17-Dec-16 07:27 35.624534 -119.687230 90 276ft 0kts
17-Dec-16 07:28 35.624533 -119.687215 97 276ft 0kts
17-Dec-16 07:29 35.624533 -119.687215 97 276ft 0kts
17-Dec-16 07:30 35.624533 -119.687215 97 276ft 0kts
17-Dec-16 07:31 35.624533 -119.687215 97 276ft 0kts
17-Dec-16 07:32 35.624533 -119.687215 97 276ft 0kts
17-Dec-16 07:33 35.624533 -119.687215 97 276ft 0kts
17-Dec-16 07:34 35.624533 -119.687215 97 276ft 0kts
17-Dec-16 07:35 35.624533 -119.687215 97 276ft 0kts
17-Dec-16 07:36 35.624533 -119.687215 97 276ft 0kts
17-Dec-16 07:37 35.624533 -119.687215 97 276ft 0kts
17-Dec-16 07:38 35.624533 -119.687215 97 276ft 0kts
17-Dec-16 07:39 35.625877 -119.686437 345 275ft 11kts
17-Dec-16 07:40 35.628573 -119.687135 163 273ft 2kts
17-Dec-16 07:41 35.613942 -119.683344 158 963ft 75kts
17-Dec-16 07:42 35.591763 -119.665374 153 1615ft 104kts
17-Dec-16 07:43 35.564912 -119.646989 149 2117ft 122kts
17-Dec-16 07:44 35.545701 -119.631729 146 2260ft 120kts
17-Dec-16 07:45 35.515462 -119.607288 144 1957ft 133kts
17-Dec-16 07:46 35.486222 -119.582553 145 1930ft 124kts
17-Dec-16 07:47 35.463713 -119.561464 137 1936ft 113kts
17-Dec-16 07:48 35.442654 -119.535252 148 2236ft 109kts
17-Dec-16 07:49 35.412591 -119.523043 164 1741ft 118kts
17-Dec-16 07:50 35.381405 -119.514286 195 1065ft 112kts
17-Dec-16 07:51 35.357214 -119.519579 132 1244ft 100kts
17-Dec-16 07:52 35.345844 -119.487356 111 1312ft 113kts
17-Dec-16 07:53 35.346365 -119.488743 344 1024ft 109kts
17-Dec-16 07:54 35.365065 -119.501352 77 806ft 98kts
17-Dec-16 07:55 35.353714 -119.480091 130 325ft 63kts
17-Dec-16 07:56 35.340401 -119.456465 117 1302ft 86kts
17-Dec-16 07:57 35.323451 -119.457411 290 1156ft 112kts
17-Dec-16 07:58 35.344976 -119.483533 314 1055ft 105kts
17-Dec-16 07:59 35.363692 -119.504285 15 678ft 82kts
17-Dec-16 08:00 35.357407 -119.485258 130 380ft 74kts
17-Dec-16 08:01 35.343150 -119.465697 132 761ft 90kts
17-Dec-16 08:02 35.318421 -119.461097 194 1617ft 101kts
17-Dec-16 08:03 35.300753 -119.484006 269 2377ft 103kts
17-Dec-16 08:04 35.309128 -119.517978 304 2826ft 117kts
17-Dec-16 08:05 35.329110 -119.542791 357 3008ft 109kts
17-Dec-16 08:06 35.345023 -119.513963 73 2916ft 110kts
17-Dec-16 08:07 35.353653 -119.483423 70 2961ft 110kts
17-Dec-16 08:08 35.363413 -119.447836 69 2969ft 110kts
17-Dec-16 08:09 35.369715 -119.411288 70 3113ft 110kts
17-Dec-16 08:10 35.379519 -119.375226 75 3039ft 114kts
17-Dec-16 08:11 35.385949 -119.336506 79 2614ft 119kts
17-Dec-16 08:12 35.391394 -119.300403 79 2921ft 98kts
17-Dec-16 08:13 35.397203 -119.267735 65 3205ft 96kts
17-Dec-16 08:14 35.400706 -119.231237 100 2798ft 117kts
17-Dec-16 08:15 35.401035 -119.193325 70 2330ft 123kts
17-Dec-16 08:16 35.399484 -119.156309 106 1735ft 116kts
17-Dec-16 08:17 35.391138 -119.124732 120 1524ft 117kts
17-Dec-16 08:18 35.373295 -119.101119 135 1586ft 120kts
17-Dec-16 08:19 35.354460 -119.078660 136 1560ft 122kts
17-Dec-16 08:20 35.352577 -119.048930 73 1451ft 121kts
17-Dec-16 08:21 35.361039 -119.020606 65 1462ft 117kts
17-Dec-16 08:22 35.374651 -118.996487 18 1613ft 108kts
17-Dec-16 08:23 35.392315 -119.005773 314 1457ft 95kts
17-Dec-16 08:24 35.406617 -119.023383 315 1236ft 86kts
17-Dec-16 08:25 35.419501 -119.038869 315 898ft 73kts
17-Dec-16 08:26 35.430490 -119.052133 314 523ft 57kts
17-Dec-16 08:27 35.436287 -119.057641 53 493ft 0kts
17-Dec-16 08:28 35.435543 -119.056005 134 495ft 27kts
17-Dec-16 08:29 35.430653 -119.050123 132 492ft 7kts
17-Dec-16 08:30 35.431165 -119.049181 226 496ft 0kts
17-Dec-16 08:31 35.431165 -119.049181 226 496ft 0kts
17-Dec-16 08:32 35.431165 -119.049181 226 496ft 0kts
17-Dec-16 08:33 35.431165 -119.049181 226 496ft 0kts
17-Dec-16 08:34 35.429374 -119.046115 226 494ft 0kts
17-Dec-16 08:35 35.429374 -119.046115 226 494ft 0kts
17-Dec-16 08:36 35.429374 -119.046115 226 494ft 0kts
17-Dec-16 08:37 35.429374 -119.046115 226 494ft 0kts
17-Dec-16 08:38 35.429374 -119.046115 226 494ft 0kts
17-Dec-16 08:39 35.429374 -119.046115 226 494ft 0kts
17-Dec-16 08:40 35.429374 -119.046115 226 494ft 0kts
17-Dec-16 08:41 35.429374 -119.046115 226 494ft 0kts

Navigation Log

Ident Type
Flight plan parsing failed, navigation log unavailable